CheckWX is a tool to help pilots better visualize weather data.  It is not intended as a substitute for an official pre-flight weather briefing.

21:14:57 UTC

KANE METAR
Anoka County-Blaine (Janes Field) Airport
Minneapolis, Minnesota, USA
Current

30 mins ago

KANE 192045Z 00000KT 10SM SCT250 28/17 A2997
Observed
Sep-19 @ 20:45 UTC
Visibility
10 SM
Flight Rules
VFR
Cloud Levels
  • Scattered at 25,000' AGL
Temperature
28°C / 82°F
Dewpoint
17°C / 63°F
Heat Index
28°C / 83°F
Humidity
51%
Altimeter
29.97" Hg
Pressure
1014.92 hPa
Previous

1 hour ago

KANE 191945Z 00000KT 10SM SCT250 28/17 A2998
Observed
Sep-19 @ 19:45 UTC
Visibility
10 SM
Flight Rules
VFR
Cloud Levels
  • Scattered at 25,000' AGL
Temperature
28°C / 82°F
Dewpoint
17°C / 63°F
Heat Index
28°C / 83°F
Humidity
51%
Altimeter
29.98" Hg
Pressure
1015.22 hPa
Previous

2 hours ago

KANE 191845Z 00000KT 10SM SCT250 28/17 A2998
Observed
Sep-19 @ 18:45 UTC
Visibility
10 SM
Flight Rules
VFR
Cloud Levels
  • Scattered at 25,000' AGL
Temperature
28°C / 82°F
Dewpoint
17°C / 63°F
Heat Index
28°C / 83°F
Humidity
51%
Altimeter
29.98" Hg
Pressure
1015.22 hPa